Terminal Aerodrome Forecast
Issued by NWS Sioux Falls, SD

Home | Current Version | Previous Version | Text Only | Print | Product List | Glossary On
Versions: 1 2 3 4 5 6 7 8 9 10 11 12 13 14 15
000
FTUS43 KFSD 240500
TAFFSD
TAF
KFSD 240530Z 2406/2506 11012G18KT P6SM SCT025 OVC080
      TEMPO 2406/2408 TSRA BKN030CB
     FM241000 35008KT P6SM BKN040
     FM241300 33012KT P6SM BKN100
     FM241800 32017G26KT P6SM SKC
     FM250200 32011KT P6SM SKC=

USA.gov is the U.S. government's official web portal to all federal, state and local government web resources and services.